sensor_id;sensor_type;location;lat;lon;timestamp;pressure;altitude;pressure_sealevel;temperature;humidity
6389;BME280;3227;42.654;23.360;2023-04-20T00:00:00;94079.69;;;12.17;74.22
6389;BME280;3227;42.654;23.360;2023-04-20T00:02:33;94072.88;;;12.13;73.97
6389;BME280;3227;42.654;23.360;2023-04-20T00:05:03;94069.38;;;12.19;72.93
6389;BME280;3227;42.654;23.360;2023-04-20T00:07:29;94067.63;;;12.23;72.72
6389;BME280;3227;42.654;23.360;2023-04-20T00:09:57;94065.88;;;12.25;73.87
6389;BME280;3227;42.654;23.360;2023-04-20T00:12:24;94064.19;;;12.24;74.22
6389;BME280;3227;42.654;23.360;2023-04-20T00:14:51;94057.44;;;12.18;71.78
6389;BME280;3227;42.654;23.360;2023-04-20T00:17:18;94011.56;;;11.91;71.49
6389;BME280;3227;42.654;23.360;2023-04-20T00:19:45;94059.94;;;12.19;73.23
6389;BME280;3227;42.654;23.360;2023-04-20T00:22:13;94057.44;;;12.18;72.58
6389;BME280;3227;42.654;23.360;2023-04-20T00:24:39;94053.19;;;12.14;72.88
6389;BME280;3227;42.654;23.360;2023-04-20T00:27:06;94055.88;;;12.03;71.66
6389;BME280;3227;42.654;23.360;2023-04-20T00:29:38;94054.28;;;11.95;71.17
6389;BME280;3227;42.654;23.360;2023-04-20T00:32:05;94053.53;;;11.88;72.04
6389;BME280;3227;42.654;23.360;2023-04-20T00:34:32;94044.19;;;11.84;71.88
6389;BME280;3227;42.654;23.360;2023-04-20T00:36:58;94051.13;;;11.76;72.25
6389;BME280;3227;42.654;23.360;2023-04-20T00:39:27;94051.13;;;11.73;72.66
6389;BME280;3227;42.654;23.360;2023-04-20T00:41:53;94047.75;;;11.69;72.97
6389;BME280;3227;42.654;23.360;2023-04-20T00:44:21;94040.25;;;11.53;73.07
6389;BME280;3227;42.654;23.360;2023-04-20T00:46:47;94045.44;;;11.47;74.36
6389;BME280;3227;42.654;23.360;2023-04-20T00:49:24;94044.63;;;11.44;74.45
6389;BME280;3227;42.654;23.360;2023-04-20T00:51:52;94048.94;;;11.39;75.43
6389;BME280;3227;42.654;23.360;2023-04-20T00:54:19;94047.28;;;11.35;75.43
6389;BME280;3227;42.654;23.360;2023-04-20T00:56:48;94048.25;;;11.25;75.83
6389;BME280;3227;42.654;23.360;2023-04-20T00:59:16;94046.53;;;11.26;76.13
6389;BME280;3227;42.654;23.360;2023-04-20T01:01:42;94040.38;;;11.40;77.23
6389;BME280;3227;42.654;23.360;2023-04-20T01:04:09;94045.63;;;11.28;75.75
6389;BME280;3227;42.654;23.360;2023-04-20T01:06:36;94034.66;;;11.19;76.55
6389;BME280;3227;42.654;23.360;2023-04-20T01:09:03;94044.91;;;11.17;76.80
6389;BME280;3227;42.654;23.360;2023-04-20T01:11:30;94036.38;;;11.17;77.65
6389;BME280;3227;42.654;23.360;2023-04-20T01:13:58;94027.84;;;11.15;77.25
6389;BME280;3227;42.654;23.360;2023-04-20T01:16:25;93972.56;;;10.89;77.77
6389;BME280;3227;42.654;23.360;2023-04-20T01:18:52;94051.44;;;11.45;76.80
6389;BME280;3227;42.654;23.360;2023-04-20T01:21:19;94036.88;;;11.48;77.95
6389;BME280;3227;42.654;23.360;2023-04-20T01:23:48;94027.59;;;11.37;77.16
6389;BME280;3227;42.654;23.360;2023-04-20T01:26:17;94038.78;;;11.30;76.88
6389;BME280;3227;42.654;23.360;2023-04-20T01:28:49;94042.25;;;11.28;77.84
6389;BME280;3227;42.654;23.360;2023-04-20T01:31:16;94043.97;;;11.24;77.26
6389;BME280;3227;42.654;23.360;2023-04-20T01:33:43;94043.03;;;11.33;79.59
6389;BME280;3227;42.654;23.360;2023-04-20T01:36:10;94041.34;;;11.30;77.58
6389;BME280;3227;42.654;23.360;2023-04-20T01:38:36;94040.47;;;11.34;78.48
6389;BME280;3227;42.654;23.360;2023-04-20T01:41:07;93935.88;;;10.86;77.81
6389;BME280;3227;42.654;23.360;2023-04-20T01:43:35;94035.19;;;11.45;77.12
6389;BME280;3227;42.654;23.360;2023-04-20T01:46:02;94031.66;;;11.54;78.42
6389;BME280;3227;42.654;23.360;2023-04-20T01:48:29;94033.34;;;11.58;77.80
6389;BME280;3227;42.654;23.360;2023-04-20T01:50:56;94035.03;;;11.60;77.46
6389;BME280;3227;42.654;23.360;2023-04-20T01:53:23;94031.63;;;11.60;78.31
6389;BME280;3227;42.654;23.360;2023-04-20T01:55:50;94001.03;;;11.41;77.35
6389;BME280;3227;42.654;23.360;2023-04-20T01:58:18;94030.75;;;11.61;77.17
6389;BME280;3227;42.654;23.360;2023-04-20T02:00:45;93989.09;;;11.40;77.26
6389;BME280;3227;42.654;23.360;2023-04-20T02:03:12;94021.28;;;11.66;76.77
6389;BME280;3227;42.654;23.360;2023-04-20T02:05:39;94018.69;;;11.69;77.26
6389;BME280;3227;42.654;23.360;2023-04-20T02:08:05;94021.19;;;11.75;76.59
6389;BME280;3227;42.654;23.360;2023-04-20T02:10:32;94018.56;;;11.78;76.85
6389;BME280;3227;42.654;23.360;2023-04-20T02:12:59;94021.19;;;11.76;75.70
6389;BME280;3227;42.654;23.360;2023-04-20T02:15:27;94020.34;;;11.70;75.03
6389;BME280;3227;42.654;23.360;2023-04-20T02:17:55;94025.53;;;11.68;75.19
6389;BME280;3227;42.654;23.360;2023-04-20T02:20:22;94023.94;;;11.57;75.39
6389;BME280;3227;42.654;23.360;2023-04-20T02:22:49;94018.97;;;11.44;76.41
6389;BME280;3227;42.654;23.360;2023-04-20T02:25:16;94026.88;;;11.25;76.28
6389;BME280;3227;42.654;23.360;2023-04-20T02:27:43;94021.84;;;11.14;77.25
6389;BME280;3227;42.654;23.360;2023-04-20T02:30:10;94025.28;;;11.13;77.31
6389;BME280;3227;42.654;23.360;2023-04-20T02:32:38;94026.22;;;11.04;77.25
6389;BME280;3227;42.654;23.360;2023-04-20T02:35:06;94028.06;;;10.92;77.98
6389;BME280;3227;42.654;23.360;2023-04-20T02:37:33;94020.53;;;10.74;79.16
6389;BME280;3227;42.654;23.360;2023-04-20T02:40:00;94023.28;;;10.54;79.72
6389;BME280;3227;42.654;23.360;2023-04-20T02:42:27;94031.91;;;10.45;81.41
6389;BME280;3227;42.654;23.360;2023-04-20T02:44:53;94023.38;;;10.39;81.43
6389;BME280;3227;42.654;23.360;2023-04-20T02:47:20;94030.31;;;10.27;82.14
6389;BME280;3227;42.654;23.360;2023-04-20T02:49:48;94026.09;;;10.20;82.76
6389;BME280;3227;42.654;23.360;2023-04-20T02:52:15;94026.13;;;10.19;83.45
6389;BME280;3227;42.654;23.360;2023-04-20T02:54:42;93995.47;;;10.04;83.04
6389;BME280;3227;42.654;23.360;2023-04-20T02:57:09;94019.22;;;10.25;83.09
6389;BME280;3227;42.654;23.360;2023-04-20T02:59:36;94029.34;;;10.42;83.13
6389;BME280;3227;42.654;23.360;2023-04-20T03:02:03;93996.94;;;10.38;82.65
6389;BME280;3227;42.654;23.360;2023-04-20T03:04:30;94019.69;;;10.76;82.21
6389;BME280;3227;42.654;23.360;2023-04-20T03:06:58;94020.47;;;10.80;80.71
6389;BME280;3227;42.654;23.360;2023-04-20T03:09:25;93963.53;;;10.52;80.45
6389;BME280;3227;42.654;23.360;2023-04-20T03:11:53;94011.78;;;10.96;80.54
6389;BME280;3227;42.654;23.360;2023-04-20T03:14:20;93983.84;;;10.72;78.44
6389;BME280;3227;42.654;23.360;2023-04-20T03:16:47;94018.63;;;10.97;79.19
6389;BME280;3227;42.654;23.360;2023-04-20T03:19:14;94017.69;;;11.04;78.85
6389;BME280;3227;42.654;23.360;2023-04-20T03:21:41;94024.50;;;11.08;79.31
6389;BME280;3227;42.654;23.360;2023-04-20T03:24:09;94020.97;;;11.20;78.67
6389;BME280;3227;42.654;23.360;2023-04-20T03:26:36;94022.63;;;11.21;78.42
6389;BME280;3227;42.654;23.360;2023-04-20T03:29:03;94019.97;;;11.33;78.34
6389;BME280;3227;42.654;23.360;2023-04-20T03:31:30;93986.06;;;11.05;77.64
6389;BME280;3227;42.654;23.360;2023-04-20T03:33:57;94026.91;;;11.20;76.74
6389;BME280;3227;42.654;23.360;2023-04-20T03:36:23;94027.00;;;11.14;76.95
6389;BME280;3227;42.654;23.360;2023-04-20T03:38:50;94030.41;;;11.16;77.35
6389;BME280;3227;42.654;23.360;2023-04-20T03:41:18;94030.47;;;11.10;76.08
6389;BME280;3227;42.654;23.360;2023-04-20T03:43:45;94013.41;;;11.06;76.92
6389;BME280;3227;42.654;23.360;2023-04-20T03:46:12;94021.06;;;11.11;76.82
6389;BME280;3227;42.654;23.360;2023-04-20T03:48:39;94030.38;;;11.19;77.17
6389;BME280;3227;42.654;23.360;2023-04-20T03:51:06;94022.59;;;11.25;76.97
6389;BME280;3227;42.654;23.360;2023-04-20T03:53:33;94008.91;;;11.28;76.15
6389;BME280;3227;42.654;23.360;2023-04-20T03:56:00;94028.50;;;11.33;76.13
6389;BME280;3227;42.654;23.360;2023-04-20T03:58:29;94028.53;;;11.30;76.26
6389;BME280;3227;42.654;23.360;2023-04-20T04:01:00;94030.22;;;11.33;76.61
6389;BME280;3227;42.654;23.360;2023-04-20T04:03:27;94026.88;;;11.26;75.41
6389;BME280;3227;42.654;23.360;2023-04-20T04:05:54;94032.81;;;11.28;75.56
6389;BME280;3227;42.654;23.360;2023-04-20T04:08:21;94033.66;;;11.29;75.34
6389;BME280;3227;42.654;23.360;2023-04-20T04:10:48;94038.91;;;11.20;76.05
6389;BME280;3227;42.654;23.360;2023-04-20T04:13:15;94044.00;;;11.23;75.64
6389;BME280;3227;42.654;23.360;2023-04-20T04:15:43;94046.53;;;11.24;75.47
6389;BME280;3227;42.654;23.360;2023-04-20T04:18:15;94042.28;;;11.20;76.42
6389;BME280;3227;42.654;23.360;2023-04-20T04:20:42;94043.13;;;11.25;76.81
6389;BME280;3227;42.654;23.360;2023-04-20T04:23:09;94039.59;;;11.35;77.13
6389;BME280;3227;42.654;23.360;2023-04-20T04:25:36;94041.31;;;11.35;76.68
6389;BME280;3227;42.654;23.360;2023-04-20T04:28:04;94040.38;;;11.43;75.95
6389;BME280;3227;42.654;23.360;2023-04-20T04:30:30;94042.81;;;11.53;75.46
6389;BME280;3227;42.654;23.360;2023-04-20T04:32:59;94033.44;;;11.52;74.56
6389;BME280;3227;42.654;23.360;2023-04-20T04:35:29;94033.53;;;11.42;74.63
6389;BME280;3227;42.654;23.360;2023-04-20T04:37:55;94047.16;;;11.46;75.31
6389;BME280;3227;42.654;23.360;2023-04-20T04:40:22;94050.66;;;11.40;74.27
6389;BME280;3227;42.654;23.360;2023-04-20T04:42:49;94054.13;;;11.36;74.57
6389;BME280;3227;42.654;23.360;2023-04-20T04:45:17;94057.56;;;11.35;74.47
6389;BME280;3227;42.654;23.360;2023-04-20T04:47:43;94059.19;;;11.39;74.21
6389;BME280;3227;42.654;23.360;2023-04-20T04:50:12;94059.19;;;11.39;75.40
6389;BME280;3227;42.654;23.360;2023-04-20T04:52:39;94065.94;;;11.50;74.42
6389;BME280;3227;42.654;23.360;2023-04-20T04:55:06;94067.66;;;11.48;75.52
6389;BME280;3227;42.654;23.360;2023-04-20T04:57:34;93999.63;;;11.15;75.66
6389;BME280;3227;42.654;23.360;2023-04-20T05:00:04;94060.66;;;11.62;74.31
6389;BME280;3227;42.654;23.360;2023-04-20T05:02:34;94070.88;;;11.68;74.65
6389;BME280;3227;42.654;23.360;2023-04-20T05:05:02;94063.13;;;11.71;74.51
6389;BME280;3227;42.654;23.360;2023-04-20T05:07:30;94070.78;;;11.74;74.27
6389;BME280;3227;42.654;23.360;2023-04-20T05:09:57;94066.53;;;11.76;73.70
6389;BME280;3227;42.654;23.360;2023-04-20T05:12:24;94072.34;;;11.89;73.81
6389;BME280;3227;42.654;23.360;2023-04-20T05:14:51;94068.06;;;11.88;73.80
6389;BME280;3227;42.654;23.360;2023-04-20T05:17:17;94068.94;;;11.87;74.53
6389;BME280;3227;42.654;23.360;2023-04-20T05:19:44;94068.97;;;11.85;73.54
6389;BME280;3227;42.654;23.360;2023-04-20T05:22:11;94070.63;;;11.89;73.95
6389;BME280;3227;42.654;23.360;2023-04-20T05:24:39;94071.47;;;11.90;74.54
6389;BME280;3227;42.654;23.360;2023-04-20T05:27:07;94062.81;;;11.97;74.19
6389;BME280;3227;42.654;23.360;2023-04-20T05:29:34;94078.13;;;12.06;72.79
6389;BME280;3227;42.654;23.360;2023-04-20T05:32:01;94066.88;;;12.14;73.21
6389;BME280;3227;42.654;23.360;2023-04-20T05:34:27;94034.59;;;11.95;72.51
6389;BME280;3227;42.654;23.360;2023-04-20T05:36:54;94044.69;;;12.10;72.73
6389;BME280;3227;42.654;23.360;2023-04-20T05:39:21;94009.91;;;11.87;71.18
6389;BME280;3227;42.654;23.360;2023-04-20T05:41:49;94076.28;;;12.15;72.10
6389;BME280;3227;42.654;23.360;2023-04-20T05:44:16;94075.31;;;12.23;72.45
6389;BME280;3227;42.654;23.360;2023-04-20T05:46:43;94082.16;;;12.24;73.18
6389;BME280;3227;42.654;23.360;2023-04-20T05:49:10;94073.59;;;12.26;71.33
6389;BME280;3227;42.654;23.360;2023-04-20T05:51:37;94082.94;;;12.29;71.64
6389;BME280;3227;42.654;23.360;2023-04-20T05:54:04;94079.50;;;12.31;71.85
6389;BME280;3227;42.654;23.360;2023-04-20T05:56:31;94080.34;;;12.32;71.90
6389;BME280;3227;42.654;23.360;2023-04-20T05:58:59;94086.47;;;12.20;72.16
6389;BME280;3227;42.654;23.360;2023-04-20T06:01:26;94078.09;;;12.09;73.00
6389;BME280;3227;42.654;23.360;2023-04-20T06:03:53;94078.81;;;12.18;73.66
6389;BME280;3227;42.654;23.360;2023-04-20T06:06:20;94072.88;;;12.13;73.07
6389;BME280;3227;42.654;23.360;2023-04-20T06:08:47;94078.84;;;12.15;74.19
6389;BME280;3227;42.654;23.360;2023-04-20T06:11:15;94063.56;;;12.06;74.81
6389;BME280;3227;42.654;23.360;2023-04-20T06:13:42;94081.31;;;12.23;75.18
6389;BME280;3227;42.654;23.360;2023-04-20T06:16:10;94071.88;;;12.24;75.66
6389;BME280;3227;42.654;23.360;2023-04-20T06:18:37;94081.19;;;12.34;74.25
6389;BME280;3227;42.654;23.360;2023-04-20T06:21:03;94082.81;;;12.38;75.30
6389;BME280;3227;42.654;23.360;2023-04-20T06:23:30;94079.25;;;12.46;76.07
6389;BME280;3227;42.654;23.360;2023-04-20T06:25:57;94062.25;;;12.38;75.28
6389;BME280;3227;42.654;23.360;2023-04-20T06:28:24;94092.97;;;12.47;74.57
6389;BME280;3227;42.654;23.360;2023-04-20T06:30:51;94083.47;;;12.52;74.85
6389;BME280;3227;42.654;23.360;2023-04-20T06:33:19;94086.75;;;12.60;74.68
6389;BME280;3227;42.654;23.360;2023-04-20T06:35:46;94068.13;;;12.46;75.09
6389;BME280;3227;42.654;23.360;2023-04-20T06:38:12;94085.09;;;12.59;73.75
6389;BME280;3227;42.654;23.360;2023-04-20T06:40:39;94083.44;;;12.55;73.80
6389;BME280;3227;42.654;23.360;2023-04-20T06:43:06;94093.91;;;12.43;74.08
6389;BME280;3227;42.654;23.360;2023-04-20T06:45:33;94088.91;;;12.31;73.91
6389;BME280;3227;42.654;23.360;2023-04-20T06:48:00;94060.88;;;12.15;74.99
6389;BME280;3227;42.654;23.360;2023-04-20T06:50:28;94094.66;;;12.48;74.65
6389;BME280;3227;42.654;23.360;2023-04-20T06:52:55;94088.75;;;12.43;74.32
6389;BME280;3227;42.654;23.360;2023-04-20T06:55:22;94102.22;;;12.58;73.51
6389;BME280;3227;42.654;23.360;2023-04-20T06:57:49;94099.59;;;12.63;73.12
6389;BME280;3227;42.654;23.360;2023-04-20T07:00:16;94100.53;;;12.57;74.46
6389;BME280;3227;42.654;23.360;2023-04-20T07:02:44;94103.97;;;12.55;75.22
6389;BME280;3227;42.654;23.360;2023-04-20T07:05:11;94111.66;;;12.60;75.09
6389;BME280;3227;42.654;23.360;2023-04-20T07:07:40;94112.47;;;12.60;75.39
6389;BME280;3227;42.654;23.360;2023-04-20T07:10:08;94119.31;;;12.61;74.31
6389;BME280;3227;42.654;23.360;2023-04-20T07:12:36;94116.78;;;12.60;75.17
6389;BME280;3227;42.654;23.360;2023-04-20T07:15:04;94124.38;;;12.67;75.08
6389;BME280;3227;42.654;23.360;2023-04-20T07:17:31;94097.03;;;12.60;74.33
6389;BME280;3227;42.654;23.360;2023-04-20T07:19:58;94126.75;;;12.81;74.08
6389;BME280;3227;42.654;23.360;2023-04-20T07:22:30;94115.72;;;12.71;75.24
6389;BME280;3227;42.654;23.360;2023-04-20T07:24:59;94118.94;;;12.85;76.19
6389;BME280;3227;42.654;23.360;2023-04-20T07:27:26;94118.66;;;13.04;75.62
6389;BME280;3227;42.654;23.360;2023-04-20T07:29:54;94115.09;;;13.12;73.79
6389;BME280;3227;42.654;23.360;2023-04-20T07:32:21;94114.94;;;13.24;73.59
6389;BME280;3227;42.654;23.360;2023-04-20T07:34:48;94112.97;;;13.37;74.07
6389;BME280;3227;42.654;23.360;2023-04-20T07:37:15;94102.69;;;13.37;73.50
6389;BME280;3227;42.654;23.360;2023-04-20T07:39:42;94110.38;;;13.40;71.76
6389;BME280;3227;42.654;23.360;2023-04-20T07:42:10;94118.81;;;13.47;71.41
6389;BME280;3227;42.654;23.360;2023-04-20T07:44:37;94116.09;;;13.54;71.30
6389;BME280;3227;42.654;23.360;2023-04-20T07:47:04;94117.88;;;13.51;71.60
6389;BME280;3227;42.654;23.360;2023-04-20T07:49:35;94112.63;;;13.57;69.06
6389;BME280;3227;42.654;23.360;2023-04-20T07:52:01;94115.81;;;13.69;70.27
6389;BME280;3227;42.654;23.360;2023-04-20T07:54:28;94114.59;;;13.90;69.27
6389;BME280;3227;42.654;23.360;2023-04-20T07:56:56;94104.75;;;14.09;68.97
6389;BME280;3227;42.654;23.360;2023-04-20T07:59:24;94108.91;;;14.16;66.19
6389;BME280;3227;42.654;23.360;2023-04-20T08:01:51;94094.50;;;14.06;66.84
6389;BME280;3227;42.654;23.360;2023-04-20T08:04:20;94108.69;;;14.25;66.19
6389;BME280;3227;42.654;23.360;2023-04-20T08:06:47;94109.31;;;14.39;65.93
6389;BME280;3227;42.654;23.360;2023-04-20T08:09:24;94109.03;;;14.52;64.68
6389;BME280;3227;42.654;23.360;2023-04-20T08:11:51;94122.69;;;14.57;64.75
6389;BME280;3227;42.654;23.360;2023-04-20T08:14:18;94115.69;;;14.62;64.05
6389;BME280;3227;42.654;23.360;2023-04-20T08:16:46;94116.31;;;14.73;63.54
6389;BME280;3227;42.654;23.360;2023-04-20T08:19:13;94105.66;;;14.87;63.53
6389;BME280;3227;42.654;23.360;2023-04-20T08:21:40;94105.94;;;15.11;63.98
6389;BME280;3227;42.654;23.360;2023-04-20T08:24:08;94109.19;;;15.18;63.38
6389;BME280;3227;42.654;23.360;2023-04-20T08:26:35;94110.00;;;15.21;61.90
6389;BME280;3227;42.654;23.360;2023-04-20T08:29:03;94117.31;;;15.03;62.36
6389;BME280;3227;42.654;23.360;2023-04-20T08:31:31;94117.59;;;14.91;64.12
6389;BME280;3227;42.654;23.360;2023-04-20T08:33:59;94115.16;;;14.48;63.96
6389;BME280;3227;42.654;23.360;2023-04-20T08:36:26;94110.03;;;14.44;65.76
6389;BME280;3227;42.654;23.360;2023-04-20T08:38:55;94031.38;;;13.87;64.65
6389;BME280;3227;42.654;23.360;2023-04-20T08:41:23;94114.38;;;14.42;65.21
6389;BME280;3227;42.654;23.360;2023-04-20T08:43:50;94120.13;;;14.55;64.26
6389;BME280;3227;42.654;23.360;2023-04-20T08:46:17;94120.69;;;14.68;65.69
6389;BME280;3227;42.654;23.360;2023-04-20T08:48:45;94117.91;;;14.77;63.21
6389;BME280;3227;42.654;23.360;2023-04-20T08:51:15;94095.69;;;14.73;63.49
6389;BME280;3227;42.654;23.360;2023-04-20T08:53:43;94116.81;;;14.87;62.05
6389;BME280;3227;42.654;23.360;2023-04-20T08:56:10;94100.78;;;14.74;62.38
6389;BME280;3227;42.654;23.360;2023-04-20T08:58:37;94116.13;;;14.80;61.79
6389;BME280;3227;42.654;23.360;2023-04-20T09:01:07;94109.41;;;14.73;63.14
6389;BME280;3227;42.654;23.360;2023-04-20T09:03:35;94119.38;;;14.89;63.90
6389;BME280;3227;42.654;23.360;2023-04-20T09:06:03;94101.34;;;14.87;62.20
6389;BME280;3227;42.654;23.360;2023-04-20T09:08:36;94104.88;;;14.83;61.03
6389;BME280;3227;42.654;23.360;2023-04-20T09:11:03;94125.66;;;14.77;61.43
6389;BME280;3227;42.654;23.360;2023-04-20T09:13:31;94117.31;;;14.66;62.27
6389;BME280;3227;42.654;23.360;2023-04-20T09:16:08;94114.25;;;14.87;62.58
6389;BME280;3227;42.654;23.360;2023-04-20T09:18:35;94100.31;;;14.94;62.25
6389;BME280;3227;42.654;23.360;2023-04-20T09:21:07;94123.81;;;15.19;61.00
6389;BME280;3227;42.654;23.360;2023-04-20T09:23:35;94118.09;;;15.40;61.13
6389;BME280;3227;42.654;23.360;2023-04-20T09:26:03;94120.28;;;15.57;59.54
6389;BME280;3227;42.654;23.360;2023-04-20T09:28:34;94116.53;;;15.70;60.22
6389;BME280;3227;42.654;23.360;2023-04-20T09:31:17;94109.16;;;15.87;59.00
6389;BME280;3227;42.654;23.360;2023-04-20T09:33:55;94098.72;;;15.90;59.13
6389;BME280;3227;42.654;23.360;2023-04-20T09:36:22;94106.78;;;16.11;59.20
6389;BME280;3227;42.654;23.360;2023-04-20T09:39:02;94105.50;;;16.25;57.82
6389;BME280;3227;42.654;23.360;2023-04-20T09:41:30;94102.63;;;16.36;56.57
6389;BME280;3227;42.654;23.360;2023-04-20T09:43:58;94098.03;;;16.46;56.91
6389;BME280;3227;42.654;23.360;2023-04-20T09:46:28;94104.31;;;16.66;56.70
6389;BME280;3227;42.654;23.360;2023-04-20T09:48:57;94103.19;;;16.75;55.51
6389;BME280;3227;42.654;23.360;2023-04-20T09:51:25;94107.63;;;16.71;54.96
6389;BME280;3227;42.654;23.360;2023-04-20T09:53:54;94109.25;;;16.74;55.83
6389;BME280;3227;42.654;23.360;2023-04-20T09:56:23;94109.13;;;16.79;55.76
6389;BME280;3227;42.654;23.360;2023-04-20T09:58:52;94102.75;;;16.89;55.15
6389;BME280;3227;42.654;23.360;2023-04-20T10:01:19;94088.28;;;16.83;55.33
6389;BME280;3227;42.654;23.360;2023-04-20T10:03:47;94098.09;;;17.00;54.71
6389;BME280;3227;42.654;23.360;2023-04-20T10:06:21;94088.69;;;16.71;54.62
6389;BME280;3227;42.654;23.360;2023-04-20T10:08:48;94095.09;;;16.56;54.58
6389;BME280;3227;42.654;23.360;2023-04-20T10:11:28;94088.13;;;16.60;54.92
6389;BME280;3227;42.654;23.360;2023-04-20T10:13:55;94087.47;;;16.53;55.97
6389;BME280;3227;42.654;23.360;2023-04-20T10:16:22;94085.84;;;16.49;56.56
6389;BME280;3227;42.654;23.360;2023-04-20T10:18:56;94074.53;;;16.53;56.21
6389;BME280;3227;42.654;23.360;2023-04-20T10:21:24;94087.19;;;16.33;56.35
6389;BME280;3227;42.654;23.360;2023-04-20T10:23:52;94043.84;;;15.82;56.55
6389;BME280;3227;42.654;23.360;2023-04-20T10:26:19;94081.13;;;16.05;57.78
6389;BME280;3227;42.654;23.360;2023-04-20T10:28:49;94079.16;;;16.13;57.67
6389;BME280;3227;42.654;23.360;2023-04-20T10:31:16;94074.22;;;16.34;57.79
6389;BME280;3227;42.654;23.360;2023-04-20T10:33:52;94076.56;;;16.42;56.11
6389;BME280;3227;42.654;23.360;2023-04-20T10:36:27;94077.41;;;16.43;56.56
6389;BME280;3227;42.654;23.360;2023-04-20T10:38:55;94056.66;;;16.46;56.56
6389;BME280;3227;42.654;23.360;2023-04-20T10:41:22;94046.47;;;16.40;55.37
6389;BME280;3227;42.654;23.360;2023-04-20T10:43:51;94069.75;;;16.40;54.96
6389;BME280;3227;42.654;23.360;2023-04-20T10:46:19;94074.13;;;16.38;56.10
6389;BME280;3227;42.654;23.360;2023-04-20T10:48:51;94070.31;;;16.49;55.46
6389;BME280;3227;42.654;23.360;2023-04-20T10:51:18;94064.19;;;16.24;55.99
6389;BME280;3227;42.654;23.360;2023-04-20T10:53:45;94064.03;;;16.30;56.12
6389;BME280;3227;42.654;23.360;2023-04-20T10:56:12;94064.44;;;16.44;55.34
6389;BME280;3227;42.654;23.360;2023-04-20T10:58:39;94054.13;;;16.44;54.93
6389;BME280;3227;42.654;23.360;2023-04-20T11:01:08;94077.38;;;16.73;54.11
6389;BME280;3227;42.654;23.360;2023-04-20T11:03:34;94064.91;;;16.86;53.97
6389;BME280;3227;42.654;23.360;2023-04-20T11:06:04;93983.47;;;16.42;53.46
6389;BME280;3227;42.654;23.360;2023-04-20T11:08:40;94034.75;;;16.85;52.99
6389;BME280;3227;42.654;23.360;2023-04-20T11:11:18;94058.19;;;17.07;53.43
6389;BME280;3227;42.654;23.360;2023-04-20T11:13:45;94054.06;;;17.01;53.30
6389;BME280;3227;42.654;23.360;2023-04-20T11:16:15;94055.63;;;17.32;52.27
6389;BME280;3227;42.654;23.360;2023-04-20T11:18:48;94013.47;;;17.03;50.86
6389;BME280;3227;42.654;23.360;2023-04-20T11:21:19;94055.16;;;17.21;52.42
6389;BME280;3227;42.654;23.360;2023-04-20T11:23:48;94056.00;;;17.46;52.09
6389;BME280;3227;42.654;23.360;2023-04-20T11:26:15;94043.09;;;17.71;51.72
6389;BME280;3227;42.654;23.360;2023-04-20T11:28:53;94000.94;;;17.16;51.87
6389;BME280;3227;42.654;23.360;2023-04-20T11:31:21;94044.56;;;17.28;52.07
6389;BME280;3227;42.654;23.360;2023-04-20T11:33:48;94047.50;;;17.18;51.81
6389;BME280;3227;42.654;23.360;2023-04-20T11:36:19;94049.41;;;17.13;52.51
6389;BME280;3227;42.654;23.360;2023-04-20T11:38:46;94035.09;;;17.01;53.02
6389;BME280;3227;42.654;23.360;2023-04-20T11:41:13;94020.06;;;16.86;53.42
6389;BME280;3227;42.654;23.360;2023-04-20T11:43:40;94048.09;;;16.99;53.55
6389;BME280;3227;42.654;23.360;2023-04-20T11:46:14;94047.78;;;17.08;53.69
6389;BME280;3227;42.654;23.360;2023-04-20T11:48:43;93998.22;;;16.68;53.13
6389;BME280;3227;42.654;23.360;2023-04-20T11:51:10;94036.63;;;16.80;53.03
6389;BME280;3227;42.654;23.360;2023-04-20T11:53:37;94045.09;;;16.85;53.61
6389;BME280;3227;42.654;23.360;2023-04-20T11:56:05;94044.25;;;16.85;52.57
6389;BME280;3227;42.654;23.360;2023-04-20T11:58:31;94035.81;;;16.80;52.82
6389;BME280;3227;42.654;23.360;2023-04-20T12:00:58;94038.69;;;16.70;52.79
6389;BME280;3227;42.654;23.360;2023-04-20T12:03:25;94040.00;;;16.54;52.38
6389;BME280;3227;42.654;23.360;2023-04-20T12:05:53;94039.81;;;16.60;52.54
6389;BME280;3227;42.654;23.360;2023-04-20T12:08:20;94040.78;;;16.56;52.81
6389;BME280;3227;42.654;23.360;2023-04-20T12:10:48;94033.03;;;16.56;53.43
6389;BME280;3227;42.654;23.360;2023-04-20T12:13:15;94039.81;;;16.60;53.25
6389;BME280;3227;42.654;23.360;2023-04-20T12:15:42;94034.66;;;16.60;53.57
6389;BME280;3227;42.654;23.360;2023-04-20T12:18:08;94035.63;;;16.56;52.28
6389;BME280;3227;42.654;23.360;2023-04-20T12:20:36;94040.97;;;16.50;53.28
6389;BME280;3227;42.654;23.360;2023-04-20T12:23:04;94026.47;;;16.46;53.53
6389;BME280;3227;42.654;23.360;2023-04-20T12:25:31;94032.78;;;16.08;54.05
6389;BME280;3227;42.654;23.360;2023-04-20T12:27:58;94030.81;;;15.87;55.03
6389;BME280;3227;42.654;23.360;2023-04-20T12:30:30;94020.31;;;15.62;55.91
6389;BME280;3227;42.654;23.360;2023-04-20T12:32:56;94035.06;;;15.57;56.80
6389;BME280;3227;42.654;23.360;2023-04-20T12:35:23;94029.34;;;15.46;57.18
6389;BME280;3227;42.654;23.360;2023-04-20T12:37:50;94030.28;;;15.42;58.09
6389;BME280;3227;42.654;23.360;2023-04-20T12:40:19;94021.84;;;15.37;58.44
6389;BME280;3227;42.654;23.360;2023-04-20T12:42:46;94016.66;;;15.37;58.24
6389;BME280;3227;42.654;23.360;2023-04-20T12:45:12;94016.97;;;15.24;58.10
6389;BME280;3227;42.654;23.360;2023-04-20T12:47:39;94025.53;;;15.27;59.04
6389;BME280;3227;42.654;23.360;2023-04-20T12:50:07;94025.56;;;15.25;58.31
6389;BME280;3227;42.654;23.360;2023-04-20T12:52:34;93964.88;;;14.78;58.08
6389;BME280;3227;42.654;23.360;2023-04-20T12:55:00;94017.09;;;14.88;59.67
6389;BME280;3227;42.654;23.360;2023-04-20T12:57:29;94018.66;;;14.93;59.43
6389;BME280;3227;42.654;23.360;2023-04-20T12:59:56;94020.59;;;15.17;59.23
6389;BME280;3227;42.654;23.360;2023-04-20T13:02:22;94012.88;;;15.17;57.75
6389;BME280;3227;42.654;23.360;2023-04-20T13:04:51;94025.69;;;15.20;57.88
6389;BME280;3227;42.654;23.360;2023-04-20T13:07:18;94023.13;;;15.20;57.90
6389;BME280;3227;42.654;23.360;2023-04-20T13:09:55;94029.47;;;15.07;58.16
6389;BME280;3227;42.654;23.360;2023-04-20T13:12:22;94011.41;;;14.73;57.14